sensor_id;sensor_type;location;lat;lon;timestamp;temperature;humidity
3406;DHT22;10008;48.682;9.016;2022-09-09T00:01:12;16.00;99.90
3406;DHT22;10008;48.682;9.016;2022-09-09T00:03:48;16.00;99.90
3406;DHT22;10008;48.682;9.016;2022-09-09T00:11:28;15.90;99.90
3406;DHT22;10008;48.682;9.016;2022-09-09T00:13:57;15.90;99.90
3406;DHT22;10008;48.682;9.016;2022-09-09T00:16:28;15.80;99.90
3406;DHT22;10008;48.682;9.016;2022-09-09T00:19:15;15.80;99.90
3406;DHT22;10008;48.682;9.016;2022-09-09T00:22:08;15.80;99.90
3406;DHT22;10008;48.682;9.016;2022-09-09T00:24:45;15.80;99.90
3406;DHT22;10008;48.682;9.016;2022-09-09T00:29:47;15.90;99.90
3406;DHT22;10008;48.682;9.016;2022-09-09T00:32:20;15.90;99.90
3406;DHT22;10008;48.682;9.016;2022-09-09T00:34:59;15.80;99.90
3406;DHT22;10008;48.682;9.016;2022-09-09T00:37:26;15.80;99.90
3406;DHT22;10008;48.682;9.016;2022-09-09T00:39:57;15.80;99.90
3406;DHT22;10008;48.682;9.016;2022-09-09T00:42:31;15.80;99.90
3406;DHT22;10008;48.682;9.016;2022-09-09T00:47:49;16.00;99.90
3406;DHT22;10008;48.682;9.016;2022-09-09T00:55:54;16.20;99.90
3406;DHT22;10008;48.682;9.016;2022-09-09T00:58:25;16.30;99.90
3406;DHT22;10008;48.682;9.016;2022-09-09T01:03:38;16.30;99.90
3406;DHT22;10008;48.682;9.016;2022-09-09T01:09:16;16.20;99.90
3406;DHT22;10008;48.682;9.016;2022-09-09T01:14:41;16.20;99.90
3406;DHT22;10008;48.682;9.016;2022-09-09T01:17:17;16.20;99.90
3406;DHT22;10008;48.682;9.016;2022-09-09T01:28:29;16.30;99.90
3406;DHT22;10008;48.682;9.016;2022-09-09T01:31:03;16.20;99.90
3406;DHT22;10008;48.682;9.016;2022-09-09T01:33:36;16.20;99.90
3406;DHT22;10008;48.682;9.016;2022-09-09T01:36:09;16.20;99.90
3406;DHT22;10008;48.682;9.016;2022-09-09T01:38:43;16.20;99.90
3406;DHT22;10008;48.682;9.016;2022-09-09T01:41:09;16.20;99.90
3406;DHT22;10008;48.682;9.016;2022-09-09T01:43:43;16.20;99.90
3406;DHT22;10008;48.682;9.016;2022-09-09T01:46:09;16.20;99.90
3406;DHT22;10008;48.682;9.016;2022-09-09T01:48:36;16.00;99.90
3406;DHT22;10008;48.682;9.016;2022-09-09T01:51:07;15.80;99.90
3406;DHT22;10008;48.682;9.016;2022-09-09T01:53:33;15.90;99.90
3406;DHT22;10008;48.682;9.016;2022-09-09T02:01:48;15.90;99.90
3406;DHT22;10008;48.682;9.016;2022-09-09T02:04:39;15.80;99.90
3406;DHT22;10008;48.682;9.016;2022-09-09T02:07:43;15.70;99.90
3406;DHT22;10008;48.682;9.016;2022-09-09T02:10:30;15.50;99.90
3406;DHT22;10008;48.682;9.016;2022-09-09T02:13:13;15.40;99.90
3406;DHT22;10008;48.682;9.016;2022-09-09T02:19:06;15.50;99.90
3406;DHT22;10008;48.682;9.016;2022-09-09T02:21:44;15.50;99.90
3406;DHT22;10008;48.682;9.016;2022-09-09T02:24:13;15.50;99.90
3406;DHT22;10008;48.682;9.016;2022-09-09T02:26:47;15.50;99.90
3406;DHT22;10008;48.682;9.016;2022-09-09T02:29:21;15.50;99.90
3406;DHT22;10008;48.682;9.016;2022-09-09T02:31:49;15.50;99.90
3406;DHT22;10008;48.682;9.016;2022-09-09T02:34:21;15.40;99.90
3406;DHT22;10008;48.682;9.016;2022-09-09T02:36:51;15.40;99.90
3406;DHT22;10008;48.682;9.016;2022-09-09T02:39:19;15.60;99.90
3406;DHT22;10008;48.682;9.016;2022-09-09T02:41:46;15.50;99.90
3406;DHT22;10008;48.682;9.016;2022-09-09T02:44:17;15.50;99.90
3406;DHT22;10008;48.682;9.016;2022-09-09T02:47:23;15.50;99.90
3406;DHT22;10008;48.682;9.016;2022-09-09T02:52:36;15.20;99.90
3406;DHT22;10008;48.682;9.016;2022-09-09T02:55:14;15.10;99.90
3406;DHT22;10008;48.682;9.016;2022-09-09T02:57:43;15.20;99.90
3406;DHT22;10008;48.682;9.016;2022-09-09T03:00:11;15.20;99.90
3406;DHT22;10008;48.682;9.016;2022-09-09T03:02:38;15.30;99.90
3406;DHT22;10008;48.682;9.016;2022-09-09T03:05:06;15.30;99.90
3406;DHT22;10008;48.682;9.016;2022-09-09T03:07:32;15.20;99.90
3406;DHT22;10008;48.682;9.016;2022-09-09T03:10:00;15.10;99.90
3406;DHT22;10008;48.682;9.016;2022-09-09T03:12:27;15.10;99.90
3406;DHT22;10008;48.682;9.016;2022-09-09T03:14:52;15.10;99.90
3406;DHT22;10008;48.682;9.016;2022-09-09T03:17:18;15.10;99.90
3406;DHT22;10008;48.682;9.016;2022-09-09T03:19:51;15.20;99.90
3406;DHT22;10008;48.682;9.016;2022-09-09T03:22:20;15.20;99.90
3406;DHT22;10008;48.682;9.016;2022-09-09T03:24:47;15.10;99.90
3406;DHT22;10008;48.682;9.016;2022-09-09T03:27:12;15.10;99.90
3406;DHT22;10008;48.682;9.016;2022-09-09T03:29:40;15.10;99.90
3406;DHT22;10008;48.682;9.016;2022-09-09T03:32:09;15.10;99.90
3406;DHT22;10008;48.682;9.016;2022-09-09T03:34:38;15.10;99.90
3406;DHT22;10008;48.682;9.016;2022-09-09T03:37:10;15.10;99.90
3406;DHT22;10008;48.682;9.016;2022-09-09T03:39:36;15.10;99.90
3406;DHT22;10008;48.682;9.016;2022-09-09T03:42:03;15.10;99.90
3406;DHT22;10008;48.682;9.016;2022-09-09T03:44:30;15.10;99.90
3406;DHT22;10008;48.682;9.016;2022-09-09T03:46:56;15.10;99.90
3406;DHT22;10008;48.682;9.016;2022-09-09T03:49:22;15.10;99.90
3406;DHT22;10008;48.682;9.016;2022-09-09T03:51:48;15.10;99.90
3406;DHT22;10008;48.682;9.016;2022-09-09T03:54:14;15.10;99.90
3406;DHT22;10008;48.682;9.016;2022-09-09T03:56:40;15.10;99.90
3406;DHT22;10008;48.682;9.016;2022-09-09T03:59:08;15.10;99.90
3406;DHT22;10008;48.682;9.016;2022-09-09T04:01:34;15.10;99.90
3406;DHT22;10008;48.682;9.016;2022-09-09T04:04:00;15.10;99.90
3406;DHT22;10008;48.682;9.016;2022-09-09T04:06:28;15.10;99.90
3406;DHT22;10008;48.682;9.016;2022-09-09T04:08:55;15.00;99.90
3406;DHT22;10008;48.682;9.016;2022-09-09T04:11:22;15.00;99.90
3406;DHT22;10008;48.682;9.016;2022-09-09T04:13:50;15.00;99.90
3406;DHT22;10008;48.682;9.016;2022-09-09T04:16:17;15.00;99.90
3406;DHT22;10008;48.682;9.016;2022-09-09T04:18:43;15.00;99.90
3406;DHT22;10008;48.682;9.016;2022-09-09T04:21:10;14.90;99.90
3406;DHT22;10008;48.682;9.016;2022-09-09T04:23:37;14.90;99.90
3406;DHT22;10008;48.682;9.016;2022-09-09T04:26:04;14.80;99.90
3406;DHT22;10008;48.682;9.016;2022-09-09T04:28:33;14.80;99.90
3406;DHT22;10008;48.682;9.016;2022-09-09T04:31:20;14.80;99.90
3406;DHT22;10008;48.682;9.016;2022-09-09T04:33:52;14.80;99.90
3406;DHT22;10008;48.682;9.016;2022-09-09T04:36:19;14.80;99.90
3406;DHT22;10008;48.682;9.016;2022-09-09T04:38:46;14.80;99.90
3406;DHT22;10008;48.682;9.016;2022-09-09T04:41:14;14.80;99.90
3406;DHT22;10008;48.682;9.016;2022-09-09T04:43:43;14.80;99.90
3406;DHT22;10008;48.682;9.016;2022-09-09T04:46:09;14.90;99.90
3406;DHT22;10008;48.682;9.016;2022-09-09T04:48:35;15.00;99.90
3406;DHT22;10008;48.682;9.016;2022-09-09T04:51:05;15.10;99.90
3406;DHT22;10008;48.682;9.016;2022-09-09T04:53:32;15.10;99.90
3406;DHT22;10008;48.682;9.016;2022-09-09T04:56:04;15.10;99.90
3406;DHT22;10008;48.682;9.016;2022-09-09T04:58:33;15.10;99.90
3406;DHT22;10008;48.682;9.016;2022-09-09T05:01:09;15.10;99.90
3406;DHT22;10008;48.682;9.016;2022-09-09T05:03:37;15.10;99.90
3406;DHT22;10008;48.682;9.016;2022-09-09T05:06:14;15.10;99.90
3406;DHT22;10008;48.682;9.016;2022-09-09T05:08:42;15.30;99.90
3406;DHT22;10008;48.682;9.016;2022-09-09T05:11:22;15.30;99.90
3406;DHT22;10008;48.682;9.016;2022-09-09T05:13:50;15.30;99.90
3406;DHT22;10008;48.682;9.016;2022-09-09T05:16:18;15.40;99.90
3406;DHT22;10008;48.682;9.016;2022-09-09T05:18:44;15.40;99.90
3406;DHT22;10008;48.682;9.016;2022-09-09T05:21:13;15.40;99.90
3406;DHT22;10008;48.682;9.016;2022-09-09T05:23:39;15.50;99.90
3406;DHT22;10008;48.682;9.016;2022-09-09T05:26:06;15.50;99.90
3406;DHT22;10008;48.682;9.016;2022-09-09T05:28:36;15.40;99.90
3406;DHT22;10008;48.682;9.016;2022-09-09T05:31:05;15.30;99.90
3406;DHT22;10008;48.682;9.016;2022-09-09T05:33:34;15.50;99.90
3406;DHT22;10008;48.682;9.016;2022-09-09T05:36:05;15.90;99.90
3406;DHT22;10008;48.682;9.016;2022-09-09T05:38:32;16.40;99.90
3406;DHT22;10008;48.682;9.016;2022-09-09T05:41:00;16.50;99.90
3406;DHT22;10008;48.682;9.016;2022-09-09T05:43:27;16.40;99.90
3406;DHT22;10008;48.682;9.016;2022-09-09T05:46:20;16.20;99.90
3406;DHT22;10008;48.682;9.016;2022-09-09T05:48:49;16.00;99.90
3406;DHT22;10008;48.682;9.016;2022-09-09T05:51:25;15.80;99.90
3406;DHT22;10008;48.682;9.016;2022-09-09T05:53:53;15.80;99.90
3406;DHT22;10008;48.682;9.016;2022-09-09T05:56:24;15.70;99.90
3406;DHT22;10008;48.682;9.016;2022-09-09T05:58:55;15.70;99.90
3406;DHT22;10008;48.682;9.016;2022-09-09T06:01:31;15.70;99.90
3406;DHT22;10008;48.682;9.016;2022-09-09T06:03:58;15.60;99.90
3406;DHT22;10008;48.682;9.016;2022-09-09T06:06:26;15.60;99.90
3406;DHT22;10008;48.682;9.016;2022-09-09T06:08:55;15.60;99.90
3406;DHT22;10008;48.682;9.016;2022-09-09T06:11:28;15.60;99.90
3406;DHT22;10008;48.682;9.016;2022-09-09T06:13:58;15.60;99.90
3406;DHT22;10008;48.682;9.016;2022-09-09T06:16:26;15.60;99.90
3406;DHT22;10008;48.682;9.016;2022-09-09T06:18:54;15.60;99.90
3406;DHT22;10008;48.682;9.016;2022-09-09T06:21:26;15.70;99.90
3406;DHT22;10008;48.682;9.016;2022-09-09T06:23:52;15.70;99.90
3406;DHT22;10008;48.682;9.016;2022-09-09T06:26:24;15.80;99.90
3406;DHT22;10008;48.682;9.016;2022-09-09T06:28:53;15.80;99.90
3406;DHT22;10008;48.682;9.016;2022-09-09T06:31:24;15.80;99.90
3406;DHT22;10008;48.682;9.016;2022-09-09T06:33:51;15.80;99.90
3406;DHT22;10008;48.682;9.016;2022-09-09T06:36:26;15.80;99.90
3406;DHT22;10008;48.682;9.016;2022-09-09T06:38:53;15.80;99.90
3406;DHT22;10008;48.682;9.016;2022-09-09T06:41:20;15.90;99.90
3406;DHT22;10008;48.682;9.016;2022-09-09T06:43:47;15.90;99.90
3406;DHT22;10008;48.682;9.016;2022-09-09T06:46:31;16.00;99.90
3406;DHT22;10008;48.682;9.016;2022-09-09T06:49:00;16.10;99.90
3406;DHT22;10008;48.682;9.016;2022-09-09T06:51:31;16.20;99.90
3406;DHT22;10008;48.682;9.016;2022-09-09T06:53:59;16.10;99.90
3406;DHT22;10008;48.682;9.016;2022-09-09T06:56:36;16.20;99.90
3406;DHT22;10008;48.682;9.016;2022-09-09T06:59:08;16.20;99.90
3406;DHT22;10008;48.682;9.016;2022-09-09T07:01:42;16.30;99.90
3406;DHT22;10008;48.682;9.016;2022-09-09T07:04:19;16.40;99.90
3406;DHT22;10008;48.682;9.016;2022-09-09T07:06:45;16.40;99.90
3406;DHT22;10008;48.682;9.016;2022-09-09T07:09:18;16.60;99.90
3406;DHT22;10008;48.682;9.016;2022-09-09T07:11:49;16.70;99.90
3406;DHT22;10008;48.682;9.016;2022-09-09T07:14:17;17.10;99.90
3406;DHT22;10008;48.682;9.016;2022-09-09T07:16:47;17.20;99.90
3406;DHT22;10008;48.682;9.016;2022-09-09T07:19:14;17.10;99.90
3406;DHT22;10008;48.682;9.016;2022-09-09T07:21:42;17.10;99.90
3406;DHT22;10008;48.682;9.016;2022-09-09T07:24:10;17.20;99.90
3406;DHT22;10008;48.682;9.016;2022-09-09T07:26:38;17.20;99.90
3406;DHT22;10008;48.682;9.016;2022-09-09T07:29:04;17.50;99.90
3406;DHT22;10008;48.682;9.016;2022-09-09T07:31:34;17.80;99.90
3406;DHT22;10008;48.682;9.016;2022-09-09T07:34:03;18.10;99.90
3406;DHT22;10008;48.682;9.016;2022-09-09T07:36:32;18.10;99.90
3406;DHT22;10008;48.682;9.016;2022-09-09T07:39:13;17.90;99.90
3406;DHT22;10008;48.682;9.016;2022-09-09T07:41:43;18.00;99.90
3406;DHT22;10008;48.682;9.016;2022-09-09T07:44:14;17.90;99.90
3406;DHT22;10008;48.682;9.016;2022-09-09T07:46:42;18.10;99.90
3406;DHT22;10008;48.682;9.016;2022-09-09T07:49:10;18.50;99.90
3406;DHT22;10008;48.682;9.016;2022-09-09T07:51:39;18.40;99.90
3406;DHT22;10008;48.682;9.016;2022-09-09T07:54:09;18.20;99.90
3406;DHT22;10008;48.682;9.016;2022-09-09T07:56:37;18.00;99.90
3406;DHT22;10008;48.682;9.016;2022-09-09T07:59:06;18.00;99.90
3406;DHT22;10008;48.682;9.016;2022-09-09T08:01:38;18.10;99.90
3406;DHT22;10008;48.682;9.016;2022-09-09T08:04:11;18.50;99.90
3406;DHT22;10008;48.682;9.016;2022-09-09T08:06:47;18.60;99.90
3406;DHT22;10008;48.682;9.016;2022-09-09T08:09:15;18.60;99.90
3406;DHT22;10008;48.682;9.016;2022-09-09T08:11:42;18.60;99.90
3406;DHT22;10008;48.682;9.016;2022-09-09T08:14:09;18.80;99.90
3406;DHT22;10008;48.682;9.016;2022-09-09T08:16:54;19.20;99.90
3406;DHT22;10008;48.682;9.016;2022-09-09T08:19:22;19.40;99.90
3406;DHT22;10008;48.682;9.016;2022-09-09T08:21:49;19.40;99.90
3406;DHT22;10008;48.682;9.016;2022-09-09T08:24:16;19.70;99.90
3406;DHT22;10008;48.682;9.016;2022-09-09T08:26:47;19.80;99.90
3406;DHT22;10008;48.682;9.016;2022-09-09T08:29:20;19.90;99.90
3406;DHT22;10008;48.682;9.016;2022-09-09T08:31:49;19.80;99.90
3406;DHT22;10008;48.682;9.016;2022-09-09T08:34:16;19.60;99.90
3406;DHT22;10008;48.682;9.016;2022-09-09T08:36:48;19.60;99.90
3406;DHT22;10008;48.682;9.016;2022-09-09T08:39:17;19.60;99.90
3406;DHT22;10008;48.682;9.016;2022-09-09T08:45:11;19.60;99.90
3406;DHT22;10008;48.682;9.016;2022-09-09T08:50:40;19.90;99.90
3406;DHT22;10008;48.682;9.016;2022-09-09T08:53:20;19.70;99.90
3406;DHT22;10008;48.682;9.016;2022-09-09T08:55:57;19.50;99.90
3406;DHT22;10008;48.682;9.016;2022-09-09T08:58:35;19.30;99.90
3406;DHT22;10008;48.682;9.016;2022-09-09T09:01:15;19.00;99.90
3406;DHT22;10008;48.682;9.016;2022-09-09T09:12:39;16.60;99.90
3406;DHT22;10008;48.682;9.016;2022-09-09T09:15:27;16.30;99.90
3406;DHT22;10008;48.682;9.016;2022-09-09T09:17:56;16.10;99.90
3406;DHT22;10008;48.682;9.016;2022-09-09T09:23:16;15.80;99.90
3406;DHT22;10008;48.682;9.016;2022-09-09T09:25:44;16.00;99.90
3406;DHT22;10008;48.682;9.016;2022-09-09T09:28:17;15.90;99.90
3406;DHT22;10008;48.682;9.016;2022-09-09T09:36:07;16.40;99.90
3406;DHT22;10008;48.682;9.016;2022-09-09T09:38:36;16.40;99.90
3406;DHT22;10008;48.682;9.016;2022-09-09T09:41:03;16.70;99.90
3406;DHT22;10008;48.682;9.016;2022-09-09T09:43:30;17.00;99.90
3406;DHT22;10008;48.682;9.016;2022-09-09T09:45:59;17.40;99.90
3406;DHT22;10008;48.682;9.016;2022-09-09T09:48:27;18.00;99.90
3406;DHT22;10008;48.682;9.016;2022-09-09T09:51:08;18.50;99.90
3406;DHT22;10008;48.682;9.016;2022-09-09T09:53:38;18.80;99.90
3406;DHT22;10008;48.682;9.016;2022-09-09T09:56:07;19.20;99.90
3406;DHT22;10008;48.682;9.016;2022-09-09T09:58:50;19.30;99.90
3406;DHT22;10008;48.682;9.016;2022-09-09T10:01:29;19.50;99.90
3406;DHT22;10008;48.682;9.016;2022-09-09T10:04:21;19.60;99.90
3406;DHT22;10008;48.682;9.016;2022-09-09T10:06:53;19.90;99.90
3406;DHT22;10008;48.682;9.016;2022-09-09T10:11:54;20.00;99.90
3406;DHT22;10008;48.682;9.016;2022-09-09T10:14:30;19.80;99.90
3406;DHT22;10008;48.682;9.016;2022-09-09T10:19:42;19.50;99.90
3406;DHT22;10008;48.682;9.016;2022-09-09T10:22:26;19.40;99.90
3406;DHT22;10008;48.682;9.016;2022-09-09T10:27:44;19.30;99.90
3406;DHT22;10008;48.682;9.016;2022-09-09T10:35:43;19.10;99.90
3406;DHT22;10008;48.682;9.016;2022-09-09T10:38:30;19.00;99.90
3406;DHT22;10008;48.682;9.016;2022-09-09T10:41:16;19.20;99.90
3406;DHT22;10008;48.682;9.016;2022-09-09T10:52:19;19.80;99.90
3406;DHT22;10008;48.682;9.016;2022-09-09T10:55:20;19.90;99.90
3406;DHT22;10008;48.682;9.016;2022-09-09T10:57:48;20.30;99.90
3406;DHT22;10008;48.682;9.016;2022-09-09T11:00:24;20.60;99.90
3406;DHT22;10008;48.682;9.016;2022-09-09T11:02:57;20.40;99.90
3406;DHT22;10008;48.682;9.016;2022-09-09T11:05:41;20.40;99.90
3406;DHT22;10008;48.682;9.016;2022-09-09T11:08:17;20.30;99.90
3406;DHT22;10008;48.682;9.016;2022-09-09T11:11:04;20.00;99.00
3406;DHT22;10008;48.682;9.016;2022-09-09T11:16:39;19.40;99.50
3406;DHT22;10008;48.682;9.016;2022-09-09T11:19:25;19.00;99.90
3406;DHT22;10008;48.682;9.016;2022-09-09T11:21:52;18.60;99.90
3406;DHT22;10008;48.682;9.016;2022-09-09T11:24:26;18.10;99.90
3406;DHT22;10008;48.682;9.016;2022-09-09T11:27:00;17.80;99.90
3406;DHT22;10008;48.682;9.016;2022-09-09T11:29:52;17.70;99.90
3406;DHT22;10008;48.682;9.016;2022-09-09T11:32:54;17.80;99.90
3406;DHT22;10008;48.682;9.016;2022-09-09T11:38:40;17.40;99.90
3406;DHT22;10008;48.682;9.016;2022-09-09T11:41:09;17.20;99.90
3406;DHT22;10008;48.682;9.016;2022-09-09T11:43:53;17.20;99.90
3406;DHT22;10008;48.682;9.016;2022-09-09T11:46:32;17.20;99.90
3406;DHT22;10008;48.682;9.016;2022-09-09T11:49:05;17.10;99.90
3406;DHT22;10008;48.682;9.016;2022-09-09T11:51:33;17.10;99.90
3406;DHT22;10008;48.682;9.016;2022-09-09T11:56:54;17.20;99.90
3406;DHT22;10008;48.682;9.016;2022-09-09T11:59:27;17.30;99.90
3406;DHT22;10008;48.682;9.016;2022-09-09T12:02:13;17.30;99.90
3406;DHT22;10008;48.682;9.016;2022-09-09T12:05:10;17.50;99.90
3406;DHT22;10008;48.682;9.016;2022-09-09T12:07:56;17.60;99.90
3406;DHT22;10008;48.682;9.016;2022-09-09T12:10:35;17.90;99.90
3406;DHT22;10008;48.682;9.016;2022-09-09T12:13:21;18.30;99.90
3406;DHT22;10008;48.682;9.016;2022-09-09T12:15:54;18.70;99.90
3406;DHT22;10008;48.682;9.016;2022-09-09T12:18:34;19.00;99.90
3406;DHT22;10008;48.682;9.016;2022-09-09T12:23:55;19.80;99.90
3406;DHT22;10008;48.682;9.016;2022-09-09T12:29:08;20.30;98.90
3406;DHT22;10008;48.682;9.016;2022-09-09T12:37:02;19.70;99.90
3406;DHT22;10008;48.682;9.016;2022-09-09T12:39:33;19.60;99.90
3406;DHT22;10008;48.682;9.016;2022-09-09T12:42:00;19.40;99.90
3406;DHT22;10008;48.682;9.016;2022-09-09T12:44:26;19.20;99.90
3406;DHT22;10008;48.682;9.016;2022-09-09T12:46:56;19.20;99.90
3406;DHT22;10008;48.682;9.016;2022-09-09T12:52:08;19.10;99.90
3406;DHT22;10008;48.682;9.016;2022-09-09T12:54:44;19.10;99.90
3406;DHT22;10008;48.682;9.016;2022-09-09T12:57:17;19.20;99.90
3406;DHT22;10008;48.682;9.016;2022-09-09T12:59:43;19.40;99.10
3406;DHT22;10008;48.682;9.016;2022-09-09T13:02:26;19.40;98.90
3406;DHT22;10008;48.682;9.016;2022-09-09T13:04:53;19.70;98.60
3406;DHT22;10008;48.682;9.016;2022-09-09T13:07:20;20.20;98.20
3406;DHT22;10008;48.682;9.016;2022-09-09T13:09:48;20.70;98.60
3406;DHT22;10008;48.682;9.016;2022-09-09T13:12:18;21.20;96.10
3406;DHT22;10008;48.682;9.016;2022-09-09T13:14:47;21.50;95.90
3406;DHT22;10008;48.682;9.016;2022-09-09T13:17:40;21.60;94.60
3406;DHT22;10008;48.682;9.016;2022-09-09T13:20:14;21.80;94.10
3406;DHT22;10008;48.682;9.016;2022-09-09T13:22:41;22.00;93.40
3406;DHT22;10008;48.682;9.016;2022-09-09T13:27:38;22.50;92.90
3406;DHT22;10008;48.682;9.016;2022-09-09T13:33:03;22.00;92.50
3406;DHT22;10008;48.682;9.016;2022-09-09T13:35:29;21.50;93.30
3406;DHT22;10008;48.682;9.016;2022-09-09T13:37:56;21.80;93.60
3406;DHT22;10008;48.682;9.016;2022-09-09T13:40:23;22.00;93.20
3406;DHT22;10008;48.682;9.016;2022-09-09T13:42:55;22.20;92.80
3406;DHT22;10008;48.682;9.016;2022-09-09T13:45:24;22.50;91.70
3406;DHT22;10008;48.682;9.016;2022-09-09T13:47:53;22.40;91.50
3406;DHT22;10008;48.682;9.016;2022-09-09T13:52:50;22.70;90.10
3406;DHT22;10008;48.682;9.016;2022-09-09T13:55:17;22.30;90.10
3406;DHT22;10008;48.682;9.016;2022-09-09T13:58:02;22.20;90.10
3406;DHT22;10008;48.682;9.016;2022-09-09T14:00:33;21.60;90.00
3406;DHT22;10008;48.682;9.016;2022-09-09T14:03:00;21.40;91.30
3406;DHT22;10008;48.682;9.016;2022-09-09T14:05:28;21.70;89.80
3406;DHT22;10008;48.682;9.016;2022-09-09T14:07:55;21.90;89.50
3406;DHT22;10008;48.682;9.016;2022-09-09T14:10:21;22.00;88.20
3406;DHT22;10008;48.682;9.016;2022-09-09T14:12:47;22.20;88.80
3406;DHT22;10008;48.682;9.016;2022-09-09T14:15:13;22.30;87.70
3406;DHT22;10008;48.682;9.016;2022-09-09T14:17:40;22.50;87.70
3406;DHT22;10008;48.682;9.016;2022-09-09T14:20:06;22.60;85.20
3406;DHT22;10008;48.682;9.016;2022-09-09T14:22:36;22.60;84.80
3406;DHT22;10008;48.682;9.016;2022-09-09T14:25:03;22.40;85.90
3406;DHT22;10008;48.682;9.016;2022-09-09T14:27:29;22.30;86.60
3406;DHT22;10008;48.682;9.016;2022-09-09T14:29:55;22.20;84.60
3406;DHT22;10008;48.682;9.016;2022-09-09T14:32:23;21.90;86.00
3406;DHT22;10008;48.682;9.016;2022-09-09T14:34:48;21.70;86.00
3406;DHT22;10008;48.682;9.016;2022-09-09T14:37:16;21.80;84.30
3406;DHT22;10008;48.682;9.016;2022-09-09T14:39:42;21.90;85.20
3406;DHT22;10008;48.682;9.016;2022-09-09T14:42:10;22.00;85.30
3406;DHT22;10008;48.682;9.016;2022-09-09T14:44:37;22.10;85.50
3406;DHT22;10008;48.682;9.016;2022-09-09T14:47:05;22.90;85.90
3406;DHT22;10008;48.682;9.016;2022-09-09T14:49:30;22.20;85.80
3406;DHT22;10008;48.682;9.016;2022-09-09T14:51:57;22.30;84.70
3406;DHT22;10008;48.682;9.016;2022-09-09T14:54:22;22.20;84.80
3406;DHT22;10008;48.682;9.016;2022-09-09T14:56:48;22.30;85.00
3406;DHT22;10008;48.682;9.016;2022-09-09T14:59:14;22.40;84.30
3406;DHT22;10008;48.682;9.016;2022-09-09T15:01:40;21.90;84.90
3406;DHT22;10008;48.682;9.016;2022-09-09T15:04:06;21.50;86.80
3406;DHT22;10008;48.682;9.016;2022-09-09T15:06:34;21.50;86.80
3406;DHT22;10008;48.682;9.016;2022-09-09T15:09:02;21.70;87.60
3406;DHT22;10008;48.682;9.016;2022-09-09T15:11:30;22.00;87.40
3406;DHT22;10008;48.682;9.016;2022-09-09T15:13:57;22.10;87.20
3406;DHT22;10008;48.682;9.016;2022-09-09T15:16:27;22.30;87.70
3406;DHT22;10008;48.682;9.016;2022-09-09T15:18:54;22.40;86.80
3406;DHT22;10008;48.682;9.016;2022-09-09T15:21:23;22.40;86.80
3406;DHT22;10008;48.682;9.016;2022-09-09T15:23:49;22.30;86.50
3406;DHT22;10008;48.682;9.016;2022-09-09T15:26:16;22.10;85.50
3406;DHT22;10008;48.682;9.016;2022-09-09T15:28:44;22.00;85.70
3406;DHT22;10008;48.682;9.016;2022-09-09T15:33:36;22.00;84.20
3406;DHT22;10008;48.682;9.016;2022-09-09T15:36:22;21.80;82.50
3406;DHT22;10008;48.682;9.016;2022-09-09T15:38:48;21.40;83.50
3406;DHT22;10008;48.682;9.016;2022-09-09T15:41:15;22.90;88.50
3406;DHT22;10008;48.682;9.016;2022-09-09T15:43:51;20.90;85.80
3406;DHT22;10008;48.682;9.016;2022-09-09T15:48:44;20.50;87.30
3406;DHT22;10008;48.682;9.016;2022-09-09T15:51:10;20.40;88.00
3406;DHT22;10008;48.682;9.016;2022-09-09T15:53:37;20.30;88.70
3406;DHT22;10008;48.682;9.016;2022-09-09T15:56:08;20.20;89.30
3406;DHT22;10008;48.682;9.016;2022-09-09T15:58:34;20.20;90.50
3406;DHT22;10008;48.682;9.016;2022-09-09T16:01:05;20.10;90.00
3406;DHT22;10008;48.682;9.016;2022-09-09T16:03:36;20.00;89.90
3406;DHT22;10008;48.682;9.016;2022-09-09T16:06:03;20.00;90.40
3406;DHT22;10008;48.682;9.016;2022-09-09T16:08:37;18.80;89.50
3406;DHT22;10008;48.682;9.016;2022-09-09T16:11:18;19.90;90.30
3406;DHT22;10008;48.682;9.016;2022-09-09T16:13:46;19.80;90.60
3406;DHT22;10008;48.682;9.016;2022-09-09T16:16:13;19.80;90.80
3406;DHT22;10008;48.682;9.016;2022-09-09T16:18:44;19.80;91.00
3406;DHT22;10008;48.682;9.016;2022-09-09T16:21:20;19.70;91.20
3406;DHT22;10008;48.682;9.016;2022-09-09T16:23:47;19.70;91.30
3406;DHT22;10008;48.682;9.016;2022-09-09T16:26:15;19.60;91.60
3406;DHT22;10008;48.682;9.016;2022-09-09T16:28:41;19.50;91.80
3406;DHT22;10008;48.682;9.016;2022-09-09T16:31:09;19.40;92.20
3406;DHT22;10008;48.682;9.016;2022-09-09T16:33:36;19.30;92.70
3406;DHT22;10008;48.682;9.016;2022-09-09T16:36:07;19.20;93.60
3406;DHT22;10008;48.682;9.016;2022-09-09T16:38:33;19.10;94.30
3406;DHT22;10008;48.682;9.016;2022-09-09T16:41:02;19.00;94.90
3406;DHT22;10008;48.682;9.016;2022-09-09T16:43:28;18.90;95.30
3406;DHT22;10008;48.682;9.016;2022-09-09T16:45:54;18.80;95.00
3406;DHT22;10008;48.682;9.016;2022-09-09T16:48:20;18.70;94.80
3406;DHT22;10008;48.682;9.016;2022-09-09T16:50:46;18.70;94.20
3406;DHT22;10008;48.682;9.016;2022-09-09T16:53:11;18.60;94.40
3406;DHT22;10008;48.682;9.016;2022-09-09T16:55:40;18.60;94.20
3406;DHT22;10008;48.682;9.016;2022-09-09T16:58:11;18.50;93.70
3406;DHT22;10008;48.682;9.016;2022-09-09T17:00:36;18.50;94.20
3406;DHT22;10008;48.682;9.016;2022-09-09T17:03:02;18.50;94.40
3406;DHT22;10008;48.682;9.016;2022-09-09T17:05:29;18.40;94.80
3406;DHT22;10008;48.682;9.016;2022-09-09T17:07:55;18.40;94.90
3406;DHT22;10008;48.682;9.016;2022-09-09T17:10:25;18.40;95.30
3406;DHT22;10008;48.682;9.016;2022-09-09T17:12:51;18.40;95.70
3406;DHT22;10008;48.682;9.016;2022-09-09T17:15:17;18.30;95.50
3406;DHT22;10008;48.682;9.016;2022-09-09T17:17:44;18.40;95.90
3406;DHT22;10008;48.682;9.016;2022-09-09T17:20:10;18.40;96.00
3406;DHT22;10008;48.682;9.016;2022-09-09T17:22:37;18.40;95.90
3406;DHT22;10008;48.682;9.016;2022-09-09T17:25:03;18.40;96.20
3406;DHT22;10008;48.682;9.016;2022-09-09T17:27:29;18.20;96.40
3406;DHT22;10008;48.682;9.016;2022-09-09T17:29:58;18.20;97.20
3406;DHT22;10008;48.682;9.016;2022-09-09T17:32:24;18.20;97.00
3406;DHT22;10008;48.682;9.016;2022-09-09T17:34:50;18.00;97.60
3406;DHT22;10008;48.682;9.016;2022-09-09T17:37:15;18.00;97.50
3406;DHT22;10008;48.682;9.016;2022-09-09T17:39:41;17.80;97.90
3406;DHT22;10008;48.682;9.016;2022-09-09T17:42:08;17.70;98.30
3406;DHT22;10008;48.682;9.016;2022-09-09T17:44:34;17.70;99.30
3406;DHT22;10008;48.682;9.016;2022-09-09T17:47:00;17.70;98.70
3406;DHT22;10008;48.682;9.016;2022-09-09T17:49:29;17.70;98.90
3406;DHT22;10008;48.682;9.016;2022-09-09T17:51:54;17.70;99.00
3406;DHT22;10008;48.682;9.016;2022-09-09T17:54:21;17.70;99.90
3406;DHT22;10008;48.682;9.016;2022-09-09T17:56:48;17.80;99.30
3406;DHT22;10008;48.682;9.016;2022-09-09T17:59:15;19.40;99.50
3406;DHT22;10008;48.682;9.016;2022-09-09T18:01:44;17.80;98.70
3406;DHT22;10008;48.682;9.016;2022-09-09T18:04:10;17.70;98.70
3406;DHT22;10008;48.682;9.016;2022-09-09T18:06:44;17.70;99.30
3406;DHT22;10008;48.682;9.016;2022-09-09T18:09:15;17.60;99.40
3406;DHT22;10008;48.682;9.016;2022-09-09T18:11:47;17.60;99.50
3406;DHT22;10008;48.682;9.016;2022-09-09T18:14:20;17.50;99.90